sensor_id;sensor_type;location;lat;lon;timestamp;pressure;altitude;pressure_sealevel;temperature;humidity
71194;BME280;58903;47.210;8.618;2023-03-13T00:02:16;94010.63;;;25.83;38.83
71194;BME280;58903;47.210;8.618;2023-03-13T00:04:44;94003.91;;;25.79;38.89
71194;BME280;58903;47.210;8.618;2023-03-13T00:07:41;94000.19;;;25.76;39.25
71194;BME280;58903;47.210;8.618;2023-03-13T00:10:17;93999.44;;;25.76;39.30
71194;BME280;58903;47.210;8.618;2023-03-13T00:12:45;93994.22;;;25.72;39.09
71194;BME280;58903;47.210;8.618;2023-03-13T00:15:13;93983.22;;;25.72;38.44
71194;BME280;58903;47.210;8.618;2023-03-13T00:17:49;93990.19;;;25.73;38.78
71194;BME280;58903;47.210;8.618;2023-03-13T00:20:15;93989.47;;;25.73;38.96
71194;BME280;58903;47.210;8.618;2023-03-13T00:22:44;93998.25;;;25.71;39.42
71194;BME280;58903;47.210;8.618;2023-03-13T00:25:12;93991.25;;;25.70;39.00
71194;BME280;58903;47.210;8.618;2023-03-13T00:27:42;93986.50;;;25.71;38.52
71194;BME280;58903;47.210;8.618;2023-03-13T00:30:11;93988.50;;;25.70;38.81
71194;BME280;58903;47.210;8.618;2023-03-13T00:32:44;93984.47;;;25.71;38.40
71194;BME280;58903;47.210;8.618;2023-03-13T00:35:12;93973.44;;;25.71;38.87
71194;BME280;58903;47.210;8.618;2023-03-13T00:37:39;93973.22;;;25.69;38.99
71194;BME280;58903;47.210;8.618;2023-03-13T00:40:08;93971.00;;;25.68;39.22
71194;BME280;58903;47.210;8.618;2023-03-13T00:42:34;93968.78;;;25.66;38.81
71194;BME280;58903;47.210;8.618;2023-03-13T00:45:05;93959.53;;;25.64;38.78
71194;BME280;58903;47.210;8.618;2023-03-13T00:47:31;93954.78;;;25.64;38.88
71194;BME280;58903;47.210;8.618;2023-03-13T00:49:57;93964.53;;;25.65;38.89
71194;BME280;58903;47.210;8.618;2023-03-13T00:52:23;93960.28;;;25.64;38.66
71194;BME280;58903;47.210;8.618;2023-03-13T00:54:49;93954.78;;;25.64;38.90
71194;BME280;58903;47.210;8.618;2023-03-13T00:57:18;93951.78;;;25.62;39.54
71194;BME280;58903;47.210;8.618;2023-03-13T00:59:46;93945.78;;;25.64;39.16
71194;BME280;58903;47.210;8.618;2023-03-13T01:02:14;93951.78;;;25.62;39.25
71194;BME280;58903;47.210;8.618;2023-03-13T01:04:42;93951.78;;;25.62;39.31
71194;BME280;58903;47.210;8.618;2023-03-13T01:07:08;93946.28;;;25.62;38.59
71194;BME280;58903;47.210;8.618;2023-03-13T01:09:39;93939.50;;;25.63;38.68
71194;BME280;58903;47.210;8.618;2023-03-13T01:12:08;93929.31;;;25.58;38.87
71194;BME280;58903;47.210;8.618;2023-03-13T01:14:34;93935.78;;;25.61;38.56
71194;BME280;58903;47.210;8.618;2023-03-13T01:17:02;93928.28;;;25.61;38.86
71194;BME280;58903;47.210;8.618;2023-03-13T01:19:41;93926.28;;;25.62;39.31
71194;BME280;58903;47.210;8.618;2023-03-13T01:22:16;93920.53;;;25.60;39.17
71194;BME280;58903;47.210;8.618;2023-03-13T01:24:43;93915.97;;;25.62;38.60
71194;BME280;58903;47.210;8.618;2023-03-13T01:27:09;93920.75;;;25.62;38.95
71194;BME280;58903;47.210;8.618;2023-03-13T01:29:35;93907.50;;;25.60;38.75
71194;BME280;58903;47.210;8.618;2023-03-13T01:32:10;93909.00;;;25.61;39.62
71194;BME280;58903;47.210;8.618;2023-03-13T01:34:44;93907.50;;;25.60;39.02
71194;BME280;58903;47.210;8.618;2023-03-13T01:37:19;93909.53;;;25.60;39.31
71194;BME280;58903;47.210;8.618;2023-03-13T01:40:05;93901.25;;;25.60;38.60
71194;BME280;58903;47.210;8.618;2023-03-13T01:43:20;93904.03;;;25.60;38.71
71194;BME280;58903;47.210;8.618;2023-03-13T01:51:40;93908.56;;;25.57;39.73
71194;BME280;58903;47.210;8.618;2023-03-13T01:54:22;93901.56;;;25.56;38.70
71194;BME280;58903;47.210;8.618;2023-03-13T01:57:26;93900.78;;;25.56;38.81
71194;BME280;58903;47.210;8.618;2023-03-13T02:03:15;93897.31;;;25.55;39.48
71194;BME280;58903;47.210;8.618;2023-03-13T02:05:47;93891.81;;;25.55;38.89
71194;BME280;58903;47.210;8.618;2023-03-13T02:08:28;93880.06;;;25.55;39.51
71194;BME280;58903;47.210;8.618;2023-03-13T02:11:15;93871.03;;;25.54;39.02
71194;BME280;58903;47.210;8.618;2023-03-13T02:13:45;93875.28;;;25.55;39.25
71194;BME280;58903;47.210;8.618;2023-03-13T02:16:18;93870.28;;;25.54;39.05
71194;BME280;58903;47.210;8.618;2023-03-13T02:18:47;93873.25;;;25.56;39.81
71194;BME280;58903;47.210;8.618;2023-03-13T02:21:24;93876.75;;;25.56;39.63
71194;BME280;58903;47.210;8.618;2023-03-13T02:24:30;93874.00;;;25.56;38.87
71194;BME280;58903;47.210;8.618;2023-03-13T02:27:00;93881.78;;;25.58;39.36
71194;BME280;58903;47.210;8.618;2023-03-13T02:29:28;93872.22;;;25.59;39.22
71194;BME280;58903;47.210;8.618;2023-03-13T02:31:54;93865.00;;;25.56;38.72
71194;BME280;58903;47.210;8.618;2023-03-13T02:34:27;93865.75;;;25.56;39.42
71194;BME280;58903;47.210;8.618;2023-03-13T02:36:59;93867.25;;;25.57;38.78
71194;BME280;58903;47.210;8.618;2023-03-13T02:39:30;93872.75;;;25.57;39.49
71194;BME280;58903;47.210;8.618;2023-03-13T02:42:01;93878.78;;;25.56;38.67
71194;BME280;58903;47.210;8.618;2023-03-13T02:44:28;93873.78;;;25.54;39.53
71194;BME280;58903;47.210;8.618;2023-03-13T02:46:56;93880.06;;;25.55;39.55
71194;BME280;58903;47.210;8.618;2023-03-13T02:49:29;93870.59;;;25.50;39.12
71194;BME280;58903;47.210;8.618;2023-03-13T02:52:30;93875.28;;;25.55;38.83
71194;BME280;58903;47.210;8.618;2023-03-13T02:55:02;93864.28;;;25.55;39.08
71194;BME280;58903;47.210;8.618;2023-03-13T02:57:30;93869.78;;;25.55;38.73
71194;BME280;58903;47.210;8.618;2023-03-13T02:59:57;93836.31;;;25.51;38.94
71194;BME280;58903;47.210;8.618;2023-03-13T03:02:35;93845.00;;;25.55;38.66
71194;BME280;58903;47.210;8.618;2023-03-13T03:05:02;93831.97;;;25.56;39.08
71194;BME280;58903;47.210;8.618;2023-03-13T03:07:32;93832.72;;;25.56;39.14
71194;BME280;58903;47.210;8.618;2023-03-13T03:10:08;93831.97;;;25.56;39.66
71194;BME280;58903;47.210;8.618;2023-03-13T03:12:46;93814.50;;;25.53;39.63
71194;BME280;58903;47.210;8.618;2023-03-13T03:15:17;93827.72;;;25.55;39.59
71194;BME280;58903;47.210;8.618;2023-03-13T03:17:44;93824.97;;;25.55;38.95
71194;BME280;58903;47.210;8.618;2023-03-13T03:20:13;93826.97;;;25.54;39.56
71194;BME280;58903;47.210;8.618;2023-03-13T03:22:39;93821.47;;;25.54;38.62
71194;BME280;58903;47.210;8.618;2023-03-13T03:25:08;93827.72;;;25.55;38.90
71194;BME280;58903;47.210;8.618;2023-03-13T03:27:35;93824.97;;;25.55;39.03
71194;BME280;58903;47.210;8.618;2023-03-13T03:30:03;93826.53;;;25.50;38.53
71194;BME280;58903;47.210;8.618;2023-03-13T03:32:30;93824.00;;;25.52;39.42
71194;BME280;58903;47.210;8.618;2023-03-13T03:34:56;93819.78;;;25.51;38.82
71194;BME280;58903;47.210;8.618;2023-03-13T03:37:24;93820.28;;;25.50;38.52
71194;BME280;58903;47.210;8.618;2023-03-13T03:39:59;93813.31;;;25.49;39.63
71194;BME280;58903;47.210;8.618;2023-03-13T03:42:29;93807.28;;;25.50;39.39
71194;BME280;58903;47.210;8.618;2023-03-13T03:45:16;93816.78;;;25.49;38.91
71194;BME280;58903;47.210;8.618;2023-03-13T03:47:51;93816.78;;;25.49;38.99
71194;BME280;58903;47.210;8.618;2023-03-13T03:50:38;93813.00;;;25.52;39.45
71194;BME280;58903;47.210;8.618;2023-03-13T03:53:09;93817.03;;;25.51;39.23
71194;BME280;58903;47.210;8.618;2023-03-13T03:55:39;93808.78;;;25.51;38.76
71194;BME280;58903;47.210;8.618;2023-03-13T03:58:18;93808.03;;;25.51;39.78
71194;BME280;58903;47.210;8.618;2023-03-13T04:01:09;93800.50;;;25.51;38.81
71194;BME280;58903;47.210;8.618;2023-03-13T04:03:40;93795.00;;;25.51;39.33
71194;BME280;58903;47.210;8.618;2023-03-13T04:06:10;93794.69;;;25.55;39.06
71194;BME280;58903;47.210;8.618;2023-03-13T04:08:36;93785.69;;;25.54;39.71
71194;BME280;58903;47.210;8.618;2023-03-13T04:11:07;93792.25;;;25.51;39.60
71194;BME280;58903;47.210;8.618;2023-03-13T04:13:33;93793.19;;;25.54;39.61
71194;BME280;58903;47.210;8.618;2023-03-13T04:15:59;93799.44;;;25.54;39.17
71194;BME280;58903;47.210;8.618;2023-03-13T04:18:27;93802.19;;;25.54;38.68
71194;BME280;58903;47.210;8.618;2023-03-13T04:21:04;93799.22;;;25.52;39.09
71194;BME280;58903;47.210;8.618;2023-03-13T04:23:30;93787.25;;;25.50;38.76
71194;BME280;58903;47.210;8.618;2023-03-13T04:26:03;93797.97;;;25.53;39.06
71194;BME280;58903;47.210;8.618;2023-03-13T04:28:32;93801.44;;;25.54;38.94
71194;BME280;58903;47.210;8.618;2023-03-13T04:31:17;93795.44;;;25.55;39.25
71194;BME280;58903;47.210;8.618;2023-03-13T04:33:49;93799.22;;;25.52;38.96
71194;BME280;58903;47.210;8.618;2023-03-13T04:36:15;93803.47;;;25.53;39.33
71194;BME280;58903;47.210;8.618;2023-03-13T04:38:48;93807.50;;;25.52;38.92
71194;BME280;58903;47.210;8.618;2023-03-13T04:41:14;93811.75;;;25.53;39.53
71194;BME280;58903;47.210;8.618;2023-03-13T04:43:54;93807.28;;;25.50;39.50
71194;BME280;58903;47.210;8.618;2023-03-13T04:46:21;93817.25;;;25.53;39.56
71194;BME280;58903;47.210;8.618;2023-03-13T04:48:49;93799.22;;;25.52;38.66
71194;BME280;58903;47.210;8.618;2023-03-13T04:51:30;93808.78;;;25.51;39.54
71194;BME280;58903;47.210;8.618;2023-03-13T04:53:56;93809.28;;;25.50;38.93
71194;BME280;58903;47.210;8.618;2023-03-13T04:56:34;93813.53;;;25.51;39.43
71194;BME280;58903;47.210;8.618;2023-03-13T04:59:08;93800.50;;;25.51;38.67
71194;BME280;58903;47.210;8.618;2023-03-13T05:01:37;93803.25;;;25.51;39.46
71194;BME280;58903;47.210;8.618;2023-03-13T05:04:03;93809.00;;;25.53;39.00
71194;BME280;58903;47.210;8.618;2023-03-13T05:06:30;93802.50;;;25.51;39.63
71194;BME280;58903;47.210;8.618;2023-03-13T05:09:25;93806.53;;;25.50;38.70
71194;BME280;58903;47.210;8.618;2023-03-13T05:12:22;93808.78;;;25.51;38.96
71194;BME280;58903;47.210;8.618;2023-03-13T05:14:48;93803.47;;;25.53;39.40
71194;BME280;58903;47.210;8.618;2023-03-13T05:17:16;93800.50;;;25.51;39.01
71194;BME280;58903;47.210;8.618;2023-03-13T05:19:51;93798.47;;;25.52;39.55
71194;BME280;58903;47.210;8.618;2023-03-13T05:22:27;93801.75;;;25.50;39.06
71194;BME280;58903;47.210;8.618;2023-03-13T05:25:02;93797.75;;;25.51;38.86
71194;BME280;58903;47.210;8.618;2023-03-13T05:27:48;93793.50;;;25.50;39.15
71194;BME280;58903;47.210;8.618;2023-03-13T05:30:23;93799.00;;;25.50;39.36
71194;BME280;58903;47.210;8.618;2023-03-13T05:32:50;93797.50;;;25.49;39.46
71194;BME280;58903;47.210;8.618;2023-03-13T05:35:38;93803.56;;;25.48;38.71
71194;BME280;58903;47.210;8.618;2023-03-13T05:38:16;93805.78;;;25.49;39.38
71194;BME280;58903;47.210;8.618;2023-03-13T05:40:53;93792.00;;;25.49;39.30
71194;BME280;58903;47.210;8.618;2023-03-13T05:43:39;93794.75;;;25.49;39.51
71194;BME280;58903;47.210;8.618;2023-03-13T05:46:05;93786.28;;;25.47;39.02
71194;BME280;58903;47.210;8.618;2023-03-13T05:48:33;93783.31;;;25.45;39.51
71194;BME280;58903;47.210;8.618;2023-03-13T05:51:03;93782.28;;;25.48;39.22
71194;BME280;58903;47.210;8.618;2023-03-13T05:53:36;93784.50;;;25.50;38.97
71194;BME280;58903;47.210;8.618;2023-03-13T05:56:21;93792.75;;;25.50;39.69
71194;BME280;58903;47.210;8.618;2023-03-13T05:58:47;93794.69;;;25.55;39.54
71194;BME280;58903;47.210;8.618;2023-03-13T06:01:23;93794.59;;;25.60;38.85
71194;BME280;58903;47.210;8.618;2023-03-13T06:03:54;93785.38;;;25.58;38.63
71194;BME280;58903;47.210;8.618;2023-03-13T06:06:22;93791.19;;;25.54;38.88
71194;BME280;58903;47.210;8.618;2023-03-13T06:08:50;93789.72;;;25.53;38.92
71194;BME280;58903;47.210;8.618;2023-03-13T06:11:17;93787.19;;;25.55;39.54
71194;BME280;58903;47.210;8.618;2023-03-13T06:13:53;93790.16;;;25.57;38.74
71194;BME280;58903;47.210;8.618;2023-03-13T06:16:25;93795.66;;;25.57;38.88
71194;BME280;58903;47.210;8.618;2023-03-13T06:18:57;93792.69;;;25.55;38.73
71194;BME280;58903;47.210;8.618;2023-03-13T06:22:03;93793.88;;;25.60;39.27
71194;BME280;58903;47.210;8.618;2023-03-13T06:24:36;93792.78;;;25.63;38.84
71194;BME280;58903;47.210;8.618;2023-03-13T06:27:02;93782.22;;;25.67;38.60
71194;BME280;58903;47.210;8.618;2023-03-13T06:29:39;93783.19;;;25.69;38.78
71194;BME280;58903;47.210;8.618;2023-03-13T06:32:21;93773.44;;;25.68;38.65
71194;BME280;58903;47.210;8.618;2023-03-13T06:34:47;93762.63;;;25.70;38.70
71194;BME280;58903;47.210;8.618;2023-03-13T06:37:18;93758.59;;;25.71;38.65
71194;BME280;58903;47.210;8.618;2023-03-13T06:39:46;93762.09;;;25.72;37.98
71194;BME280;58903;47.210;8.618;2023-03-13T06:42:22;93765.41;;;25.70;38.43
71194;BME280;58903;47.210;8.618;2023-03-13T06:44:58;93764.31;;;25.73;37.85
71194;BME280;58903;47.210;8.618;2023-03-13T06:47:42;93756.81;;;25.74;38.51
71194;BME280;58903;47.210;8.618;2023-03-13T06:50:12;93765.06;;;25.74;37.79
71194;BME280;58903;47.210;8.618;2023-03-13T06:52:38;93764.31;;;25.73;37.84
71194;BME280;58903;47.210;8.618;2023-03-13T06:55:15;93772.81;;;25.75;38.22
71194;BME280;58903;47.210;8.618;2023-03-13T06:58:19;93779.81;;;25.76;38.20
71194;BME280;58903;47.210;8.618;2023-03-13T07:03:55;93778.63;;;25.72;37.97
71194;BME280;58903;47.210;8.618;2023-03-13T07:06:41;93776.41;;;25.70;38.90
71194;BME280;58903;47.210;8.618;2023-03-13T07:09:17;93764.00;;;25.64;38.23
71194;BME280;58903;47.210;8.618;2023-03-13T07:11:56;93763.25;;;25.63;38.27
71194;BME280;58903;47.210;8.618;2023-03-13T07:14:33;93757.53;;;25.61;38.54
71194;BME280;58903;47.210;8.618;2023-03-13T07:16:59;93754.56;;;25.59;38.48
71194;BME280;58903;47.210;8.618;2023-03-13T07:19:34;93749.06;;;25.59;37.95
71194;BME280;58903;47.210;8.618;2023-03-13T07:22:01;93748.31;;;25.59;38.86
71194;BME280;58903;47.210;8.618;2023-03-13T07:24:28;93750.09;;;25.56;39.11
71194;BME280;58903;47.210;8.618;2023-03-13T07:26:55;93748.19;;;25.51;39.02
71194;BME280;58903;47.210;8.618;2023-03-13T07:29:30;93752.63;;;25.54;38.79
71194;BME280;58903;47.210;8.618;2023-03-13T07:31:57;93748.41;;;25.53;39.14
71194;BME280;58903;47.210;8.618;2023-03-13T07:34:36;93733.69;;;25.51;38.62
71194;BME280;58903;47.210;8.618;2023-03-13T07:37:09;93733.13;;;25.52;38.98
71194;BME280;58903;47.210;8.618;2023-03-13T07:39:39;93746.16;;;25.52;39.49
71194;BME280;58903;47.210;8.618;2023-03-13T07:42:06;93737.19;;;25.51;38.81
71194;BME280;58903;47.210;8.618;2023-03-13T07:44:32;93736.66;;;25.53;38.48
71194;BME280;58903;47.210;8.618;2023-03-13T07:47:23;93727.84;;;25.54;39.07
71194;BME280;58903;47.210;8.618;2023-03-13T07:49:57;93734.63;;;25.53;39.25
71194;BME280;58903;47.210;8.618;2023-03-13T07:52:34;93747.13;;;25.54;39.00
71194;BME280;58903;47.210;8.618;2023-03-13T07:55:11;93747.78;;;25.60;38.40
71194;BME280;58903;47.210;8.618;2023-03-13T07:57:43;93757.00;;;25.63;38.52
71194;BME280;58903;47.210;8.618;2023-03-13T08:00:11;93756.50;;;25.64;38.28
71194;BME280;58903;47.210;8.618;2023-03-13T08:02:45;93755.63;;;25.69;38.94
71194;BME280;58903;47.210;8.618;2023-03-13T08:05:13;93750.56;;;25.73;38.84
71194;BME280;58903;47.210;8.618;2023-03-13T08:07:45;93755.03;;;25.76;38.49
71194;BME280;58903;47.210;8.618;2023-03-13T08:10:13;93750.47;;;25.79;38.06
71194;BME280;58903;47.210;8.618;2023-03-13T08:12:39;93750.69;;;25.81;38.67
71194;BME280;58903;47.210;8.618;2023-03-13T08:15:07;93741.88;;;25.82;38.73
71194;BME280;58903;47.210;8.618;2023-03-13T08:17:44;93743.16;;;25.81;38.44
71194;BME280;58903;47.210;8.618;2023-03-13T08:20:13;93746.84;;;25.84;37.91
71194;BME280;58903;47.210;8.618;2023-03-13T08:22:55;93749.09;;;25.85;37.77
71194;BME280;58903;47.210;8.618;2023-03-13T08:25:24;93747.31;;;25.88;38.07
71194;BME280;58903;47.210;8.618;2023-03-13T08:27:50;93750.28;;;25.90;38.13
71194;BME280;58903;47.210;8.618;2023-03-13T08:30:25;93751.53;;;25.89;38.22
71194;BME280;58903;47.210;8.618;2023-03-13T08:32:52;93761.72;;;25.94;37.80
71194;BME280;58903;47.210;8.618;2023-03-13T08:35:18;93747.75;;;25.92;38.73
71194;BME280;58903;47.210;8.618;2023-03-13T08:37:44;93754.22;;;25.94;37.84
71194;BME280;58903;47.210;8.618;2023-03-13T08:40:10;93749.53;;;25.89;38.54
71194;BME280;58903;47.210;8.618;2023-03-13T08:42:37;93738.94;;;25.93;38.11
71194;BME280;58903;47.210;8.618;2023-03-13T08:45:08;93745.94;;;25.94;38.34
71194;BME280;58903;47.210;8.618;2023-03-13T08:47:35;93741.16;;;25.95;37.86
71194;BME280;58903;47.210;8.618;2023-03-13T08:50:07;93746.38;;;25.98;38.44
71194;BME280;58903;47.210;8.618;2023-03-13T08:52:35;93732.78;;;26.00;38.27
71194;BME280;58903;47.210;8.618;2023-03-13T08:55:06;93731.84;;;25.98;37.75
71194;BME280;58903;47.210;8.618;2023-03-13T08:57:34;93725.78;;;25.99;38.64
71194;BME280;58903;47.210;8.618;2023-03-13T09:00:00;93719.78;;;26.01;37.79
71194;BME280;58903;47.210;8.618;2023-03-13T09:02:29;93715.50;;;26.00;38.71
71194;BME280;58903;47.210;8.618;2023-03-13T09:04:55;93701.19;;;26.01;38.63
71194;BME280;58903;47.210;8.618;2023-03-13T09:07:21;93693.81;;;25.96;37.80
71194;BME280;58903;47.210;8.618;2023-03-13T09:09:50;93698.22;;;25.99;37.95
71194;BME280;58903;47.210;8.618;2023-03-13T09:12:16;93700.91;;;26.05;37.88
71194;BME280;58903;47.210;8.618;2023-03-13T09:14:44;93692.44;;;26.03;37.99
71194;BME280;58903;47.210;8.618;2023-03-13T09:17:10;93697.41;;;26.04;38.20
71194;BME280;58903;47.210;8.618;2023-03-13T09:19:36;93689.34;;;26.06;37.60
71194;BME280;58903;47.210;8.618;2023-03-13T09:22:04;93695.59;;;26.07;38.33
71194;BME280;58903;47.210;8.618;2023-03-13T09:24:30;93689.56;;;26.08;38.50
71194;BME280;58903;47.210;8.618;2023-03-13T09:27:02;93682.81;;;26.09;37.69
71194;BME280;58903;47.210;8.618;2023-03-13T09:29:30;93672.50;;;26.10;38.61
71194;BME280;58903;47.210;8.618;2023-03-13T09:31:59;93667.75;;;26.10;38.63
71194;BME280;58903;47.210;8.618;2023-03-13T09:34:27;93653.75;;;26.08;38.04
71194;BME280;58903;47.210;8.618;2023-03-13T09:36:53;93654.16;;;26.12;38.53
71194;BME280;58903;47.210;8.618;2023-03-13T09:39:19;93643.69;;;26.11;37.97
71194;BME280;58903;47.210;8.618;2023-03-13T09:41:52;93647.19;;;26.11;37.91
71194;BME280;58903;47.210;8.618;2023-03-13T09:49:32;93629.56;;;26.14;38.55
71194;BME280;58903;47.210;8.618;2023-03-13T09:57:49;93645.06;;;26.17;37.71
71194;BME280;58903;47.210;8.618;2023-03-13T10:00:29;93627.00;;;26.16;37.75
71194;BME280;58903;47.210;8.618;2023-03-13T10:06:24;93618.44;;;26.20;38.19
71194;BME280;58903;47.210;8.618;2023-03-13T10:08:52;93605.63;;;26.23;37.94
71194;BME280;58903;47.210;8.618;2023-03-13T10:11:39;93601.56;;;26.24;37.64
71194;BME280;58903;47.210;8.618;2023-03-13T10:14:21;93603.06;;;26.25;37.74
71194;BME280;58903;47.210;8.618;2023-03-13T10:19:40;93583.75;;;26.25;38.24
71194;BME280;58903;47.210;8.618;2023-03-13T10:22:21;93582.47;;;26.26;38.28
71194;BME280;58903;47.210;8.618;2023-03-13T10:28:04;93575.69;;;26.27;37.54
71194;BME280;58903;47.210;8.618;2023-03-13T10:30:47;93575.69;;;26.27;38.09
71194;BME280;58903;47.210;8.618;2023-03-13T10:33:25;93575.91;;;26.29;37.85
71194;BME280;58903;47.210;8.618;2023-03-13T10:36:04;93571.13;;;26.29;37.76
71194;BME280;58903;47.210;8.618;2023-03-13T10:38:53;93567.09;;;26.30;38.18
71194;BME280;58903;47.210;8.618;2023-03-13T10:41:27;93563.59;;;26.30;38.31
71194;BME280;58903;47.210;8.618;2023-03-13T10:44:01;93566.56;;;26.32;37.64
71194;BME280;58903;47.210;8.618;2023-03-13T10:46:31;93559.56;;;26.31;37.83
71194;BME280;58903;47.210;8.618;2023-03-13T10:49:25;93556.06;;;26.30;37.80
71194;BME280;58903;47.210;8.618;2023-03-13T10:51:54;93556.06;;;26.30;38.26
71194;BME280;58903;47.210;8.618;2023-03-13T10:54:24;93557.88;;;26.28;38.12
71194;BME280;58903;47.210;8.618;2023-03-13T10:59:57;93529.03;;;26.29;37.63
71194;BME280;58903;47.210;8.618;2023-03-13T11:02:35;93531.44;;;26.32;38.13
71194;BME280;58903;47.210;8.618;2023-03-13T11:07:54;93518.63;;;26.35;37.64
71194;BME280;58903;47.210;8.618;2023-03-13T11:10:51;93516.06;;;26.37;38.00
71194;BME280;58903;47.210;8.618;2023-03-13T11:13:40;93509.28;;;26.38;38.31
71194;BME280;58903;47.210;8.618;2023-03-13T11:16:33;93498.97;;;26.38;38.20
71194;BME280;58903;47.210;8.618;2023-03-13T11:22:55;93484.88;;;26.42;37.91
71194;BME280;58903;47.210;8.618;2023-03-13T11:31:17;93473.84;;;26.42;37.88
71194;BME280;58903;47.210;8.618;2023-03-13T11:33:57;93470.13;;;26.39;38.15
71194;BME280;58903;47.210;8.618;2023-03-13T11:37:10;93469.06;;;26.42;37.65
71194;BME280;58903;47.210;8.618;2023-03-13T11:49:10;93430.66;;;26.44;38.08
71194;BME280;58903;47.210;8.618;2023-03-13T11:52:29;93437.66;;;26.45;38.07
71194;BME280;58903;47.210;8.618;2023-03-13T12:00:36;93417.28;;;26.48;38.20
71194;BME280;58903;47.210;8.618;2023-03-13T12:06:02;93405.91;;;26.52;37.53
71194;BME280;58903;47.210;8.618;2023-03-13T12:09:04;93410.34;;;26.55;38.27
71194;BME280;58903;47.210;8.618;2023-03-13T12:14:58;93405.56;;;26.55;38.06
71194;BME280;58903;47.210;8.618;2023-03-13T12:17:38;93388.47;;;26.57;38.62
71194;BME280;58903;47.210;8.618;2023-03-13T12:23:13;93374.69;;;26.57;38.11
71194;BME280;58903;47.210;8.618;2023-03-13T12:32:26;93366.06;;;26.60;37.65
71194;BME280;58903;47.210;8.618;2023-03-13T12:38:19;93350.44;;;26.63;37.83
71194;BME280;58903;47.210;8.618;2023-03-13T12:43:33;93320.13;;;26.63;37.55
71194;BME280;58903;47.210;8.618;2023-03-13T12:49:31;93298.78;;;26.63;37.72
71194;BME280;58903;47.210;8.618;2023-03-13T12:58:19;93291.66;;;26.68;37.77
71194;BME280;58903;47.210;8.618;2023-03-13T13:00:50;93276.38;;;26.67;37.06
71194;BME280;58903;47.210;8.618;2023-03-13T13:03:50;93276.56;;;26.69;37.67
71194;BME280;58903;47.210;8.618;2023-03-13T13:16:10;93220.16;;;26.77;37.64
71194;BME280;58903;47.210;8.618;2023-03-13T13:18:52;93199.03;;;26.80;37.40
71194;BME280;58903;47.210;8.618;2023-03-13T13:21:23;93185.59;;;26.84;37.51
71194;BME280;58903;47.210;8.618;2023-03-13T13:23:52;93183.59;;;26.84;37.38
71194;BME280;58903;47.210;8.618;2023-03-13T13:32:12;93162.63;;;26.89;37.45
71194;BME280;58903;47.210;8.618;2023-03-13T13:35:03;93148.84;;;26.89;37.80
71194;BME280;58903;47.210;8.618;2023-03-13T13:37:41;93165.41;;;26.89;37.32
71194;BME280;58903;47.210;8.618;2023-03-13T13:46:52;93147.75;;;26.92;37.13
71194;BME280;58903;47.210;8.618;2023-03-13T13:49:25;93138.34;;;26.95;37.28
71194;BME280;58903;47.210;8.618;2023-03-13T13:54:53;93121.28;;;26.97;37.31
71194;BME280;58903;47.210;8.618;2023-03-13T13:57:33;93113.72;;;26.97;37.56
71194;BME280;58903;47.210;8.618;2023-03-13T14:03:47;93107.47;;;27.04;37.42
71194;BME280;58903;47.210;8.618;2023-03-13T14:06:34;93106.38;;;27.07;37.47
71194;BME280;58903;47.210;8.618;2023-03-13T14:11:49;93099.38;;;27.14;37.73
71194;BME280;58903;47.210;8.618;2023-03-13T14:14:35;93088.72;;;27.18;37.45
71194;BME280;58903;47.210;8.618;2023-03-13T14:17:02;93084.13;;;27.20;37.50
71194;BME280;58903;47.210;8.618;2023-03-13T14:19:44;93088.69;;;27.25;37.19
71194;BME280;58903;47.210;8.618;2023-03-13T14:22:12;93085.41;;;27.27;37.40
71194;BME280;58903;47.210;8.618;2023-03-13T14:25:04;93071.78;;;27.29;37.36
71194;BME280;58903;47.210;8.618;2023-03-13T14:27:32;93063.13;;;27.32;37.56
71194;BME280;58903;47.210;8.618;2023-03-13T14:30:27;93066.44;;;27.38;37.12
71194;BME280;58903;47.210;8.618;2023-03-13T14:32:53;93056.13;;;27.39;36.96
71194;BME280;58903;47.210;8.618;2023-03-13T14:35:32;93055.97;;;27.44;37.02
71194;BME280;58903;47.210;8.618;2023-03-13T14:38:02;93053.56;;;27.48;37.36
71194;BME280;58903;47.210;8.618;2023-03-13T14:40:38;93044.53;;;27.48;36.90
71194;BME280;58903;47.210;8.618;2023-03-13T14:43:19;93044.31;;;27.53;36.91
71194;BME280;58903;47.210;8.618;2023-03-13T14:48:55;93043.41;;;27.58;37.01
71194;BME280;58903;47.210;8.618;2023-03-13T14:51:26;93041.00;;;27.62;36.99
71194;BME280;58903;47.210;8.618;2023-03-13T14:53:57;93036.38;;;27.65;36.64
71194;BME280;58903;47.210;8.618;2023-03-13T14:56:42;93030.50;;;27.69;36.65
71194;BME280;58903;47.210;8.618;2023-03-13T14:59:18;93018.72;;;27.68;36.80
71194;BME280;58903;47.210;8.618;2023-03-13T15:02:02;93022.75;;;27.75;36.68
71194;BME280;58903;47.210;8.618;2023-03-13T15:04:48;93022.75;;;27.75;36.59
71194;BME280;58903;47.210;8.618;2023-03-13T15:07:14;93012.03;;;27.79;36.59
71194;BME280;58903;47.210;8.618;2023-03-13T15:09:46;93006.69;;;27.81;36.79
71194;BME280;58903;47.210;8.618;2023-03-13T15:12:28;92999.31;;;27.83;36.73
71194;BME280;58903;47.210;8.618;2023-03-13T15:15:26;92998.00;;;27.84;36.62
71194;BME280;58903;47.210;8.618;2023-03-13T15:17:52;92981.06;;;27.88;36.37
71194;BME280;58903;47.210;8.618;2023-03-13T15:20:33;92987.88;;;27.87;36.37
71194;BME280;58903;47.210;8.618;2023-03-13T15:23:36;92980.09;;;27.93;36.28
71194;BME280;58903;47.210;8.618;2023-03-13T15:26:16;92965.16;;;27.96;36.14
71194;BME280;58903;47.210;8.618;2023-03-13T15:29:00;92966.47;;;27.95;36.26
71194;BME280;58903;47.210;8.618;2023-03-13T15:31:36;92952.28;;;27.98;36.32
71194;BME280;58903;47.210;8.618;2023-03-13T15:34:25;92950.06;;;27.97;36.27
71194;BME280;58903;47.210;8.618;2023-03-13T15:37:11;92943.25;;;27.98;36.17
71194;BME280;58903;47.210;8.618;2023-03-13T15:39:37;92936.78;;;27.95;35.99
71194;BME280;58903;47.210;8.618;2023-03-13T15:42:21;92929.44;;;27.98;36.11
71194;BME280;58903;47.210;8.618;2023-03-13T15:44:49;92929.25;;;27.96;36.18
71194;BME280;58903;47.210;8.618;2023-03-13T15:47:19;92933.47;;;27.97;36.29